| time (UTC) | temp C | wind direction | speed KPH | gust KPH | rain 1hr cm | rain 24hr cm | rain mn cm | humidity % | barometer mb |
| 20260906113345 | 18 | 16 | 0.0 | 1.6 | 0.00 | 0.00 | 0.00 | 99 | 1032.3 |
| 20260906112841 | 18 | 16 | 0.0 | 0.0 | 0.00 | 0.00 | 0.00 | 99 | 1032.2 |
| 20260906112337 | 18 | 16 | 0.0 | 0.0 | 0.00 | 0.00 | 0.00 | 99 | 1032.2 |
| 20260906111832 | 18 | 16 | 0.0 | 0.0 | 0.00 | 0.00 | 0.00 | 99 | 1032.2 |
| 20260906111331 | 18 | 16 | 0.0 | 0.0 | 0.00 | 0.00 | 0.00 | 99 | 1032.0 |
| 20260906110826 | 18 | 16 | 0.0 | 0.0 | 0.00 | 0.00 | 0.00 | 99 | 1032.0 |
| 20260906110322 | 18 | 17 | 0.0 | 0.0 | 0.00 | 0.00 | 0.00 | 99 | 1032.0 |
| 20260906105821 | 18 | 17 | 0.0 | 0.0 | 0.00 | 0.00 | 0.00 | 99 | 1031.6 |
| 20260906105317 | 18 | 16 | 0.0 | 0.0 | 0.00 | 0.00 | 0.00 | 99 | 1031.8 |
| 20260906104813 | 18 | 16 | 0.0 | 0.0 | 0.00 | 0.00 | 0.00 | 99 | 1031.9 |
| 20260906104311 | 18 | 18 | 0.0 | 1.6 | 0.00 | 0.00 | 0.00 | 99 | 1031.7 |
| 20260906103809 | 18 | 35 | 0.0 | 1.6 | 0.00 | 0.00 | 0.00 | 99 | 1031.8 |
| 20260906103309 | 18 | 343 | 0.0 | 3.2 | 0.00 | 0.00 | 0.00 | 99 | 1031.7 |
| 20260906102805 | 18 | 333 | 3.2 | 4.8 | 0.00 | 0.00 | 0.00 | 99 | 1031.5 |
| 20260906102306 | 18 | 1 | 3.2 | 6.4 | 0.00 | 0.00 | 0.00 | 99 | 1031.6 |
| 20260906101759 | 18 | 33 | 6.4 | 9.7 | 0.00 | 0.00 | 0.00 | 99 | 1031.7 |
| 20260906101254 | 18 | 3 | 4.8 | 6.4 | 0.00 | 0.00 | 0.00 | 99 | 1031.5 |
| 20260906100749 | 18 | 46 | 4.8 | 4.8 | 0.00 | 0.00 | 0.00 | 99 | 1031.4 |
| 20260906100248 | 18 | 337 | 3.2 | 4.8 | 0.00 | 0.00 | 0.00 | 99 | 1031.4 |
| 20260906095744 | 18 | 15 | 1.6 | 3.2 | 0.00 | 0.00 | 0.00 | 99 | 1031.3 |
| 20260906095239 | 18 | 39 | 0.0 | 1.6 | 0.00 | 0.00 | 0.00 | 99 | 1031.5 |
| 20260906094738 | 18 | 46 | 1.6 | 4.8 | 0.00 | 0.00 | 0.00 | 99 | 1031.0 |
| 20260906094234 | 18 | 45 | 1.6 | 1.6 | 0.00 | 0.00 | 0.00 | 99 | 1031.4 |
| 20260906093730 | 18 | 353 | 0.0 | 1.6 | 0.00 | 0.00 | 0.00 | 99 | 1031.4 |
| 20260906093225 | 18 | 24 | 1.6 | 3.2 | 0.00 | 0.00 | 0.00 | 99 | 1031.3 |
| 20260906092721 | 18 | 47 | 0.0 | 1.6 | 0.00 | 0.00 | 0.00 | 99 | 1031.2 |
| 20260906092220 | 18 | 47 | 0.0 | 1.6 | 0.00 | 0.00 | 0.00 | 99 | 1031.0 |
| 20260906091716 | 18 | 116 | 1.6 | 1.6 | 0.00 | 0.00 | 0.00 | 99 | 1030.9 |
| 20260906091207 | 18 | 117 | 0.0 | 1.6 | 0.00 | 0.00 | 0.00 | 99 | 1031.2 |
| 20260906090703 | 18 | 74 | 0.0 | 0.0 | 0.00 | 0.00 | 0.00 | 99 | 1030.8 |
| 20260906090202 | 18 | 59 | 0.0 | 3.2 | 0.00 | 0.00 | 0.00 | 99 | 1030.9 |
| 20260906085701 | 18 | 227 | 0.0 | 0.0 | 0.00 | 0.00 | 0.00 | 99 | 1031.0 |
| 20260906085200 | 18 | 227 | 0.0 | 0.0 | 0.00 | 0.00 | 0.00 | 99 | 1031.2 |
| 20260906084655 | 18 | 236 | 0.0 | 0.0 | 0.00 | 0.00 | 0.00 | 99 | 1031.0 |
| 20260906084154 | 18 | 339 | 0.0 | 0.0 | 0.00 | 0.00 | 0.00 | 99 | 1031.2 |
| 20260906083649 | 18 | 339 | 0.0 | 0.0 | 0.00 | 0.00 | 0.00 | 99 | 1031.4 |
| 20260906083144 | 18 | 338 | 0.0 | 0.0 | 0.00 | 0.00 | 0.00 | 99 | 1031.0 |
| 20260906082640 | 18 | 341 | 0.0 | 0.0 | 0.00 | 0.00 | 0.00 | 99 | 1031.2 |
| 20260906082135 | 18 | 25 | 0.0 | 0.0 | 0.00 | 0.00 | 0.00 | 99 | 1031.0 |
| 20260906081631 | 18 | 319 | 0.0 | 0.0 | 0.00 | 0.00 | 0.00 | 99 | 1031.4 |
| 20260906081126 | 18 | 319 | 0.0 | 0.0 | 0.00 | 0.00 | 0.00 | 99 | 1031.2 |
| 20260906080623 | 18 | 20 | 0.0 | 0.0 | 0.00 | 0.00 | 0.00 | 99 | 1031.3 |
| 20260906080119 | 18 | 21 | 0.0 | 0.0 | 0.00 | 0.00 | 0.00 | 99 | 1031.0 |
| 20260906075618 | 18 | 18 | 0.0 | 0.0 | 0.00 | 0.00 | 0.00 | 99 | 1030.9 |
| 20260906075113 | 18 | 15 | 0.0 | 0.0 | 0.00 | 0.00 | 0.00 | 99 | 1030.9 |
| 20260906074608 | 18 | 86 | 0.0 | 1.6 | 0.00 | 0.00 | 0.00 | 99 | 1031.2 |
| 20260906074107 | 18 | 233 | 1.6 | 1.6 | 0.00 | 0.00 | 0.00 | 99 | 1030.8 |
| 20260906073601 | 18 | 233 | 0.0 | 0.0 | 0.00 | 0.00 | 0.00 | 99 | 1030.9 |
| 20260906073052 | 18 | 233 | 0.0 | 0.0 | 0.00 | 0.00 | 0.00 | 99 | 1030.9 |
| 20260906072546 | 18 | 233 | 0.0 | 0.0 | 0.00 | 0.00 | 0.00 | 99 | 1031.0 |
| 20260906072042 | 18 | 254 | 0.0 | 0.0 | 0.00 | 0.00 | 0.00 | 99 | 1031.0 |
| 20260906071538 | 18 | 251 | 0.0 | 1.6 | 0.00 | 0.00 | 0.00 | 99 | 1031.2 |
| 20260906071033 | 18 | 354 | 1.6 | 1.6 | 0.00 | 0.00 | 0.00 | 99 | 1031.3 |
| 20260906070530 | 18 | 354 | 0.0 | 1.6 | 0.00 | 0.00 | 0.00 | 99 | 1031.0 |
| 20260906070025 | 18 | 0 | 1.6 | 3.2 | 0.00 | 0.00 | 0.00 | 99 | 1031.3 |
| 20260906065524 | 18 | 9 | 1.6 | 4.8 | 0.00 | 0.00 | 0.00 | 99 | 1031.2 |
| 20260906065020 | 18 | 19 | 0.0 | 0.0 | 0.00 | 0.00 | 0.00 | 99 | 1031.2 |
| 20260906064517 | 18 | 343 | 0.0 | 0.0 | 0.00 | 0.00 | 0.00 | 99 | 1031.3 |
| 20260906064016 | 18 | 336 | 0.0 | 0.0 | 0.00 | 0.00 | 0.00 | 99 | 1031.5 |
| 20260906063512 | 18 | 242 | 0.0 | 0.0 | 0.00 | 0.00 | 0.00 | 99 | 1031.4 |
| 20260906063008 | 18 | 240 | 0.0 | 0.0 | 0.00 | 0.00 | 0.00 | 99 | 1031.7 |
| 20260906062502 | 18 | 240 | 0.0 | 0.0 | 0.00 | 0.00 | 0.00 | 99 | 1031.5 |
| 20260906061957 | 18 | 240 | 0.0 | 1.6 | 0.00 | 0.00 | 0.00 | 99 | 1031.6 |
| 20260906061454 | 18 | 225 | 0.0 | 3.2 | 0.00 | 0.00 | 0.00 | 99 | 1031.7 |
| 20260906060953 | 18 | 223 | 3.2 | 3.2 | 0.00 | 0.00 | 0.00 | 99 | 1031.5 |
| 20260906060450 | 18 | 224 | 1.6 | 1.6 | 0.00 | 0.00 | 0.00 | 99 | 1031.7 |
| 20260906055946 | 18 | 224 | 0.0 | 1.6 | 0.00 | 0.00 | 0.00 | 99 | 1031.5 |
| 20260906055442 | 18 | 223 | 0.0 | 1.6 | 0.00 | 0.00 | 0.00 | 99 | 1031.5 |
| 20260906054937 | 18 | 219 | 3.2 | 3.2 | 0.00 | 0.00 | 0.00 | 99 | 1031.7 |
| 20260906054432 | 18 | 253 | 1.6 | 1.6 | 0.00 | 0.00 | 0.00 | 99 | 1031.6 |
| 20260906053928 | 18 | 358 | 0.0 | 1.6 | 0.00 | 0.00 | 0.00 | 99 | 1031.5 |
| 20260906053424 | 18 | 358 | 0.0 | 0.0 | 0.00 | 0.00 | 0.00 | 99 | 1031.6 |
| 20260906052919 | 18 | 358 | 0.0 | 1.6 | 0.00 | 0.00 | 0.00 | 99 | 1031.7 |
| 20260906052415 | 18 | 1 | 1.6 | 3.2 | 0.00 | 0.00 | 0.00 | 99 | 1031.4 |
| 20260906051912 | 18 | 14 | 1.6 | 3.2 | 0.00 | 0.00 | 0.00 | 99 | 1031.6 |
| 20260906051412 | 18 | 23 | 1.6 | 3.2 | 0.00 | 0.00 | 0.00 | 99 | 1031.7 |
| 20260906050909 | 18 | 45 | 4.8 | 4.8 | 0.00 | 0.00 | 0.00 | 99 | 1031.6 |
| 20260906050408 | 18 | 42 | 1.6 | 3.2 | 0.00 | 0.00 | 0.00 | 99 | 1031.7 |
| 20260906045907 | 18 | 263 | 0.0 | 0.0 | 0.00 | 0.00 | 0.00 | 99 | 1031.5 |
| 20260906045406 | 18 | 262 | 0.0 | 0.0 | 0.00 | 0.00 | 0.00 | 99 | 1031.6 |
| 20260906044903 | 18 | 262 | 0.0 | 0.0 | 0.00 | 0.00 | 0.00 | 99 | 1031.5 |
| 20260906044402 | 18 | 262 | 0.0 | 0.0 | 0.00 | 0.00 | 0.00 | 99 | 1031.6 |
| 20260906043858 | 18 | 263 | 0.0 | 1.6 | 0.00 | 0.00 | 0.00 | 99 | 1031.5 |
| 20260906043354 | 18 | 339 | 1.6 | 1.6 | 0.00 | 0.00 | 0.00 | 99 | 1031.5 |
| 20260906042849 | 19 | 223 | 0.0 | 0.0 | 0.00 | 0.00 | 0.00 | 99 | 1031.4 |
| 20260906042348 | 19 | 223 | 1.6 | 3.2 | 0.00 | 0.00 | 0.00 | 99 | 1031.4 |
| 20260906041844 | 19 | 231 | 3.2 | 3.2 | 0.00 | 0.00 | 0.00 | 99 | 1031.4 |
| 20260906041339 | 19 | 14 | 0.0 | 0.0 | 0.00 | 0.00 | 0.00 | 99 | 1031.6 |
| 20260906040839 | 19 | 52 | 1.6 | 1.6 | 0.00 | 0.00 | 0.00 | 99 | 1031.9 |
| 20260906040335 | 19 | 53 | 0.0 | 1.6 | 0.00 | 0.00 | 0.00 | 99 | 1031.9 |
| 20260906035830 | 19 | 194 | 0.0 | 0.0 | 0.00 | 0.28 | 0.28 | 99 | 1032.0 |
| 20260906035325 | 20 | 195 | 0.0 | 0.0 | 0.00 | 0.28 | 0.28 | 99 | 1031.9 |
| 20260906034821 | 20 | 321 | 0.0 | 0.0 | 0.00 | 0.28 | 0.28 | 99 | 1032.0 |
| 20260906034321 | 20 | 321 | 0.0 | 0.0 | 0.00 | 0.28 | 0.28 | 99 | 1032.1 |
| 20260906033817 | 20 | 321 | 0.0 | 0.0 | 0.00 | 0.28 | 0.28 | 99 | 1032.1 |
| 20260906033315 | 20 | 321 | 0.0 | 0.0 | 0.00 | 0.28 | 0.28 | 99 | 1032.1 |
| 20260906032812 | 20 | 321 | 0.0 | 0.0 | 0.00 | 0.28 | 0.28 | 99 | 1032.0 |
| 20260906032307 | 20 | 344 | 3.2 | 4.8 | 0.00 | 0.28 | 0.28 | 99 | 1032.2 |
| 20260906031803 | 20 | 345 | 3.2 | 3.2 | 0.00 | 0.28 | 0.28 | 99 | 1031.9 |
| 20260906031258 | 20 | 95 | 1.6 | 3.2 | 0.00 | 0.28 | 0.28 | 98 | 1031.9 |
| 20260906030758 | 20 | 208 | 0.0 | 0.0 | 0.00 | 0.28 | 0.28 | 98 | 1031.9 |
| 20260906030253 | 20 | 208 | 0.0 | 0.0 | 0.00 | 0.28 | 0.28 | 98 | 1032.0 |
| 20260906025753 | 20 | 208 | 0.0 | 0.0 | 0.00 | 0.28 | 0.28 | 98 | 1032.0 |
| 20260906025247 | 20 | 208 | 0.0 | 1.6 | 0.00 | 0.28 | 0.28 | 97 | 1032.0 |
| 20260906024746 | 20 | 208 | 0.0 | 0.0 | 0.00 | 0.28 | 0.28 | 97 | 1032.0 |
| 20260906024245 | 20 | 208 | 1.6 | 1.6 | 0.00 | 0.28 | 0.28 | 97 | 1032.1 |
| 20260906023741 | 20 | 208 | 1.6 | 1.6 | 0.00 | 0.28 | 0.28 | 97 | 1031.9 |
| 20260906023236 | 20 | 208 | 0.0 | 0.0 | 0.00 | 0.28 | 0.28 | 97 | 1032.1 |
| 20260906022732 | 20 | 208 | 0.0 | 0.0 | 0.00 | 0.28 | 0.28 | 96 | 1031.9 |
| 20260906022227 | 21 | 208 | 0.0 | 0.0 | 0.00 | 0.28 | 0.28 | 96 | 1032.1 |
| 20260906021723 | 21 | 208 | 0.0 | 0.0 | 0.00 | 0.28 | 0.28 | 96 | 1032.1 |
| 20260906021221 | 21 | 208 | 0.0 | 0.0 | 0.00 | 0.28 | 0.28 | 95 | 1032.1 |
| 20260906020716 | 21 | 208 | 0.0 | 0.0 | 0.00 | 0.28 | 0.28 | 95 | 1032.1 |
| 20260906020211 | 21 | 208 | 0.0 | 0.0 | 0.00 | 0.28 | 0.28 | 95 | 1032.1 |
| 20260906015706 | 21 | 208 | 0.0 | 0.0 | 0.00 | 0.28 | 0.28 | 95 | 1032.0 |
| 20260906015205 | 21 | 208 | 1.6 | 1.6 | 0.00 | 0.28 | 0.28 | 95 | 1032.2 |
| 20260906014704 | 21 | 209 | 1.6 | 1.6 | 0.00 | 0.28 | 0.28 | 95 | 1031.8 |
| 20260906014200 | 21 | 207 | 1.6 | 1.6 | 0.00 | 0.28 | 0.28 | 94 | 1032.0 |
| 20260906013656 | 21 | 207 | 1.6 | 1.6 | 0.00 | 0.28 | 0.28 | 94 | 1032.0 |
| 20260906013151 | 21 | 199 | 1.6 | 3.2 | 0.00 | 0.28 | 0.28 | 93 | 1031.9 |
| 20260906012645 | 22 | 185 | 1.6 | 1.6 | 0.00 | 0.28 | 0.28 | 91 | 1031.8 |
| 20260906012139 | 22 | 210 | 0.0 | 0.0 | 0.00 | 0.28 | 0.28 | 90 | 1031.5 |
| 20260906011635 | 22 | 210 | 0.0 | 1.6 | 0.00 | 0.28 | 0.28 | 89 | 1031.4 |
| 20260906011130 | 22 | 206 | 1.6 | 3.2 | 0.00 | 0.28 | 0.28 | 88 | 1031.3 |
| 20260906010625 | 23 | 257 | 0.0 | 0.0 | 0.00 | 0.28 | 0.28 | 83 | 1031.5 |
| 20260906010122 | 23 | 257 | 0.0 | 1.6 | 0.00 | 0.28 | 0.28 | 82 | 1031.4 |
| 20260906005621 | 24 | 258 | 0.0 | 1.6 | 0.00 | 0.28 | 0.28 | 81 | 1031.3 |
| 20260906005120 | 23 | 330 | 4.8 | 4.8 | 0.00 | 0.28 | 0.28 | 80 | 1031.0 |
| 20260906004619 | 23 | 336 | 4.8 | 6.4 | 0.00 | 0.28 | 0.28 | 80 | 1031.0 |
| 20260906004114 | 23 | 329 | 6.4 | 6.4 | 0.00 | 0.28 | 0.28 | 81 | 1031.0 |
| 20260906003610 | 24 | 318 | 3.2 | 4.8 | 0.00 | 0.28 | 0.28 | 81 | 1031.0 |
| 20260906003106 | 24 | 314 | 3.2 | 4.8 | 0.00 | 0.28 | 0.28 | 80 | 1031.2 |
| 20260906002600 | 24 | 260 | 1.6 | 1.6 | 0.00 | 0.28 | 0.28 | 80 | 1031.3 |
| 20260906002056 | 24 | 321 | 3.2 | 4.8 | 0.00 | 0.28 | 0.28 | 79 | 1031.0 |
| 20260906001551 | 24 | 333 | 4.8 | 6.4 | 0.00 | 0.28 | 0.28 | 79 | 1031.3 |
| 20260906001051 | 24 | 328 | 4.8 | 6.4 | 0.00 | 0.28 | 0.28 | 79 | 1031.2 |
| 20260906000547 | 24 | 333 | 3.2 | 6.4 | 0.00 | 0.28 | 0.28 | 78 | 1030.8 |
| 20260906000042 | 25 | 326 | 3.2 | 4.8 | 0.00 | 0.28 | 0.28 | 78 | 1031.0 |
| 20260905235541 | 25 | 334 | 4.8 | 6.4 | 0.00 | 0.28 | 0.28 | 77 | 1030.9 |
| 20260905235036 | 25 | 317 | 4.8 | 6.4 | 0.00 | 0.28 | 0.28 | 77 | 1030.8 |
| 20260905234526 | 25 | 318 | 3.2 | 6.4 | 0.00 | 0.28 | 0.28 | 77 | 1031.2 |
| 20260905234026 | 25 | 349 | 3.2 | 4.8 | 0.00 | 0.28 | 0.28 | 77 | 1030.9 |
| 20260905233521 | 25 | 353 | 1.6 | 6.4 | 0.00 | 0.28 | 0.28 | 77 | 1031.0 |
| 20260905233021 | 25 | 343 | 4.8 | 4.8 | 0.00 | 0.28 | 0.28 | 76 | 1030.9 |
| 20260905232516 | 25 | 335 | 3.2 | 6.4 | 0.00 | 0.28 | 0.28 | 75 | 1030.8 |
| 20260905232012 | 26 | 343 | 4.8 | 9.7 | 0.00 | 0.28 | 0.28 | 74 | 1031.0 |
| 20260905231507 | 26 | 352 | 6.4 | 6.4 | 0.00 | 0.28 | 0.28 | 73 | 1031.0 |
| 20260905231003 | 26 | 335 | 6.4 | 9.7 | 0.00 | 0.28 | 0.28 | 73 | 1030.9 |
| 20260905230502 | 26 | 339 | 6.4 | 9.7 | 0.00 | 0.28 | 0.28 | 72 | 1030.9 |
| 20260905230000 | 26 | 343 | 4.8 | 11.3 | 0.00 | 0.28 | 0.28 | 72 | 1030.8 |
| 20260905225455 | 26 | 336 | 6.4 | 12.9 | 0.00 | 0.28 | 0.28 | 72 | 1031.0 |
| 20260905224951 | 26 | 31 | 19.3 | 22.5 | 0.00 | 0.28 | 0.28 | 70 | 1031.2 |
| 20260905224446 | 26 | 7 | 6.4 | 11.3 | 0.00 | 0.28 | 0.28 | 71 | 1031.0 |
| 20260905223945 | 26 | 329 | 8.0 | 16.1 | 0.00 | 0.28 | 0.28 | 70 | 1031.0 |
| 20260905223443 | 27 | 336 | 8.0 | 11.3 | 0.00 | 0.28 | 0.28 | 69 | 1031.2 |
| 20260905222938 | 27 | 14 | 8.0 | 12.9 | 0.00 | 0.28 | 0.28 | 67 | 1030.8 |
| 20260905222437 | 27 | 353 | 9.7 | 12.9 | 0.00 | 0.28 | 0.28 | 68 | 1030.8 |
| 20260905221933 | 27 | 315 | 3.2 | 4.8 | 0.00 | 0.28 | 0.28 | 68 | 1030.7 |
| 20260905221429 | 27 | 359 | 8.0 | 9.7 | 0.00 | 0.28 | 0.28 | 66 | 1030.7 |
| 20260905220926 | 27 | 27 | 1.6 | 9.7 | 0.00 | 0.28 | 0.28 | 67 | 1030.7 |
| 20260905220421 | 27 | 43 | 4.8 | 11.3 | 0.00 | 0.28 | 0.28 | 65 | 1030.3 |
| 20260905215920 | 27 | 343 | 11.3 | 16.1 | 0.00 | 0.28 | 0.28 | 65 | 1030.4 |
| 20260905215416 | 28 | 333 | 1.6 | 9.7 | 0.00 | 0.28 | 0.28 | 66 | 1030.6 |
| 20260905214912 | 27 | 287 | 0.0 | 3.2 | 0.00 | 0.28 | 0.28 | 64 | 1030.4 |
| 20260905214408 | 27 | 325 | 8.0 | 9.7 | 0.00 | 0.28 | 0.28 | 63 | 1030.4 |
| 20260905213908 | 28 | 332 | 3.2 | 6.4 | 0.00 | 0.28 | 0.28 | 65 | 1030.2 |
| 20260905213404 | 28 | 349 | 8.0 | 12.9 | 0.00 | 0.28 | 0.28 | 63 | 1030.3 |
| 20260905212859 | 28 | 342 | 11.3 | 12.9 | 0.00 | 0.28 | 0.28 | 64 | 1030.2 |
| 20260905212354 | 28 | 32 | 3.2 | 6.4 | 0.00 | 0.28 | 0.28 | 65 | 1030.1 |
| 20260905211853 | 27 | 334 | 8.0 | 9.7 | 0.00 | 0.28 | 0.28 | 64 | 1030.2 |
| 20260905211349 | 27 | 345 | 8.0 | 14.5 | 0.00 | 0.28 | 0.28 | 62 | 1030.2 |
| 20260905210840 | 27 | 344 | 11.3 | 12.9 | 0.00 | 0.28 | 0.28 | 62 | 1030.1 |
| 20260905210340 | 28 | 48 | 6.4 | 9.7 | 0.00 | 0.28 | 0.28 | 64 | 1030.2 |
| 20260905205839 | 28 | 59 | 9.7 | 11.3 | 0.00 | 0.28 | 0.28 | 64 | 1030.1 |
| 20260905205339 | 28 | 309 | 4.8 | 9.7 | 0.00 | 0.28 | 0.28 | 64 | 1030.2 |
| 20260905204838 | 28 | 0 | 6.4 | 11.3 | 0.00 | 0.28 | 0.28 | 63 | 1030.2 |
| 20260905204335 | 28 | 336 | 14.5 | 20.9 | 0.00 | 0.28 | 0.28 | 62 | 1029.9 |
| 20260905203833 | 28 | 331 | 12.9 | 17.7 | 0.00 | 0.28 | 0.28 | 61 | 1029.9 |
| 20260905203329 | 28 | 306 | 1.6 | 14.5 | 0.00 | 0.28 | 0.28 | 63 | 1030.1 |
| 20260905202824 | 28 | 299 | 6.4 | 12.9 | 0.00 | 0.28 | 0.28 | 63 | 1030.0 |
| 20260905202314 | 28 | 9 | 3.2 | 11.3 | 0.00 | 0.28 | 0.28 | 64 | 1030.2 |
| 20260905201809 | 28 | 19 | 4.8 | 4.8 | 0.00 | 0.28 | 0.28 | 66 | 1030.2 |
| 20260905201304 | 28 | 325 | 4.8 | 12.9 | 0.00 | 0.28 | 0.28 | 63 | 1030.0 |
| 20260905200759 | 28 | 348 | 4.8 | 9.7 | 0.00 | 0.28 | 0.28 | 65 | 1030.1 |
| 20260905200255 | 28 | 357 | 1.6 | 11.3 | 0.00 | 0.28 | 0.28 | 63 | 1030.1 |
| 20260905195752 | 28 | 329 | 9.7 | 14.5 | 0.00 | 0.28 | 0.28 | 65 | 1030.2 |
| 20260905195247 | 28 | 358 | 3.2 | 6.4 | 0.00 | 0.28 | 0.28 | 67 | 1030.4 |
| 20260905194744 | 28 | 53 | 9.7 | 12.9 | 0.00 | 0.28 | 0.28 | 65 | 1030.3 |
| 20260905194243 | 28 | 4 | 4.8 | 12.9 | 0.00 | 0.28 | 0.28 | 69 | 1030.5 |
| 20260905193742 | 28 | 315 | 1.6 | 6.4 | 0.00 | 0.28 | 0.28 | 69 | 1030.6 |
| 20260905193237 | 28 | 286 | 3.2 | 11.3 | 0.00 | 0.28 | 0.28 | 70 | 1030.5 |
| 20260905192732 | 28 | 270 | 0.0 | 12.9 | 0.00 | 0.28 | 0.28 | 72 | 1030.7 |
| 20260905192229 | 28 | 342 | 4.8 | 9.7 | 0.00 | 0.28 | 0.28 | 68 | 1030.7 |
| 20260905191728 | 28 | 314 | 11.3 | 17.7 | 0.00 | 0.28 | 0.28 | 68 | 1030.7 |
| 20260905191226 | 27 | 250 | 1.6 | 14.5 | 0.00 | 0.28 | 0.28 | 72 | 1030.9 |
| 20260905190725 | 27 | 321 | 4.8 | 14.5 | 0.00 | 0.28 | 0.28 | 72 | 1030.8 |
| 20260905190224 | 27 | 267 | 0.0 | 4.8 | 0.00 | 0.28 | 0.28 | 73 | 1030.9 |
| 20260905185723 | 27 | 43 | 3.2 | 9.7 | 0.00 | 0.28 | 0.28 | 74 | 1031.0 |
| 20260905185218 | 27 | 340 | 3.2 | 9.7 | 0.00 | 0.28 | 0.28 | 79 | 1031.3 |
| 20260905184713 | 28 | 328 | 4.8 | 16.1 | 0.00 | 0.28 | 0.28 | 75 | 1031.0 |
| 20260905184212 | 27 | 110 | 0.0 | 1.6 | 0.00 | 0.28 | 0.28 | 79 | 1031.3 |
| 20260905183711 | 27 | 108 | 3.2 | 3.2 | 0.00 | 0.28 | 0.28 | 77 | 1031.4 |
| 20260905183207 | 27 | 257 | 1.6 | 6.4 | 0.00 | 0.28 | 0.28 | 79 | 1031.5 |
| 20260905182706 | 27 | 150 | 3.2 | 4.8 | 0.00 | 0.28 | 0.28 | 79 | 1031.6 |
| 20260905182201 | 27 | 156 | 3.2 | 4.8 | 0.00 | 0.28 | 0.28 | 78 | 1031.8 |
| 20260905181656 | 27 | 292 | 3.2 | 4.8 | 0.00 | 0.28 | 0.28 | 78 | 1031.7 |
| 20260905181155 | 27 | 137 | 3.2 | 3.2 | 0.00 | 0.28 | 0.28 | 79 | 1031.9 |
| 20260905180649 | 27 | 317 | 3.2 | 4.8 | 0.00 | 0.28 | 0.28 | 78 | 1032.0 |
| 20260905180145 | 26 | 190 | 1.6 | 1.6 | 0.00 | 0.28 | 0.28 | 82 | 1032.2 |
| 20260905175643 | 25 | 179 | 0.0 | 3.2 | 0.00 | 0.28 | 0.28 | 83 | 1032.1 |
| 20260905175139 | 25 | 23 | 0.0 | 1.6 | 0.00 | 0.28 | 0.28 | 87 | 1032.1 |
| 20260905174635 | 25 | 21 | 3.2 | 4.8 | 0.00 | 0.28 | 0.28 | 87 | 1032.2 |
| 20260905174130 | 24 | 312 | 1.6 | 3.2 | 0.00 | 0.28 | 0.28 | 88 | 1032.4 |
| 20260905173627 | 24 | 5 | 3.2 | 3.2 | 0.00 | 0.28 | 0.28 | 89 | 1032.7 |
| 20260905173122 | 24 | 51 | 3.2 | 3.2 | 0.00 | 0.28 | 0.28 | 90 | 1032.7 |
| 20260905172621 | 23 | 19 | 0.0 | 6.4 | 0.00 | 0.28 | 0.28 | 89 | 1032.5 |
| 20260905172116 | 23 | 346 | 1.6 | 6.4 | 0.00 | 0.28 | 0.28 | 89 | 1032.8 |
| 20260905171612 | 23 | 322 | 3.2 | 4.8 | 0.00 | 0.28 | 0.28 | 90 | 1032.8 |
| 20260905171108 | 23 | 327 | 0.0 | 4.8 | 0.00 | 0.28 | 0.28 | 91 | 1032.8 |
| 20260905170604 | 23 | 240 | 0.0 | 1.6 | 0.00 | 0.28 | 0.28 | 92 | 1032.5 |
| 20260905170059 | 23 | 196 | 1.6 | 3.2 | 0.00 | 0.28 | 0.28 | 90 | 1032.9 |
| 20260905165559 | 23 | 190 | 0.0 | 3.2 | 0.00 | 0.28 | 0.28 | 91 | 1032.8 |
| 20260905165054 | 23 | 289 | 3.2 | 3.2 | 0.00 | 0.28 | 0.28 | 93 | 1032.7 |
| 20260905164549 | 22 | 192 | 6.4 | 6.4 | 0.00 | 0.28 | 0.28 | 92 | 1032.4 |
| 20260905164044 | 22 | 209 | 3.2 | 6.4 | 0.00 | 0.28 | 0.28 | 93 | 1032.3 |
| 20260905163540 | 22 | 273 | 6.4 | 11.3 | 0.00 | 0.28 | 0.28 | 94 | 1032.0 |
| 20260905163036 | 22 | 209 | 4.8 | 16.1 | 0.00 | 0.28 | 0.28 | 94 | 1032.4 |
| 20260905162532 | 22 | 241 | 1.6 | 4.8 | 0.00 | 0.28 | 0.28 | 94 | 1032.5 |
| 20260905162026 | 22 | 207 | 4.8 | 14.5 | 0.00 | 0.28 | 0.28 | 94 | 1032.5 |
| 20260905161526 | 22 | 239 | 6.4 | 6.4 | 0.00 | 0.28 | 0.28 | 92 | 1032.7 |
| 20260905161024 | 22 | 225 | 3.2 | 3.2 | 0.00 | 0.28 | 0.28 | 93 | 1033.0 |
| 20260905160517 | 22 | 191 | 3.2 | 6.4 | 0.00 | 0.28 | 0.28 | 93 | 1033.3 |
| 20260905160018 | 22 | 200 | 1.6 | 3.2 | 0.00 | 0.28 | 0.28 | 93 | 1033.5 |
| 20260905155517 | 22 | 143 | 1.6 | 4.8 | 0.00 | 0.28 | 0.28 | 92 | 1033.8 |
| 20260905155015 | 23 | 206 | 3.2 | 6.4 | 0.00 | 0.28 | 0.28 | 92 | 1033.9 |
| 20260905154511 | 22 | 192 | 1.6 | 3.2 | 0.00 | 0.28 | 0.28 | 94 | 1033.9 |
| 20260905154007 | 22 | 201 | 8.0 | 9.7 | 0.00 | 0.28 | 0.28 | 94 | 1034.2 |
| 20260905153503 | 22 | 150 | 0.0 | 1.6 | 0.00 | 0.28 | 0.28 | 99 | 1034.3 |
| 20260905153002 | 22 | 347 | 0.0 | 0.0 | 0.00 | 0.28 | 0.28 | 99 | 1034.4 |
| 20260905152502 | 21 | 4 | 0.0 | 1.6 | 0.00 | 0.28 | 0.28 | 99 | 1034.5 |
| 20260905151957 | 21 | 70 | 0.0 | 1.6 | 0.00 | 0.28 | 0.28 | 99 | 1034.3 |
| 20260905151452 | 21 | 330 | 1.6 | 3.2 | 0.00 | 0.28 | 0.28 | 99 | 1034.4 |
| 20260905150947 | 20 | 155 | 1.6 | 3.2 | 0.00 | 0.28 | 0.28 | 99 | 1034.4 |
| 20260905150443 | 21 | 169 | 1.6 | 1.6 | 0.00 | 0.28 | 0.28 | 99 | 1034.6 |
| 20260905145939 | 20 | 70 | 1.6 | 1.6 | 0.00 | 0.28 | 0.28 | 99 | 1034.3 |
| 20260905145439 | 20 | 143 | 1.6 | 1.6 | 0.00 | 0.28 | 0.28 | 99 | 1034.3 |
| 20260905144933 | 20 | 162 | 1.6 | 1.6 | 0.00 | 0.28 | 0.28 | 99 | 1034.3 |
| 20260905144428 | 20 | 346 | 0.0 | 0.0 | 0.36 | 0.28 | 0.28 | 99 | 1034.6 |
| 20260905143927 | 20 | 358 | 3.2 | 4.8 | 1.27 | 0.28 | 0.28 | 99 | 1034.3 |
| 20260905143426 | 20 | 5 | 4.8 | 6.4 | 0.89 | 0.20 | 0.20 | 99 | 1034.5 |
| 20260905142921 | 20 | 4 | 9.7 | 17.7 | 0.30 | 0.08 | 0.08 | 99 | 1034.4 |
| 20260905142420 | 20 | 1 | 11.3 | 20.9 | 0.30 | 0.05 | 0.05 | 99 | 1034.0 |
| 20260905141916 | 20 | 1 | 6.4 | 9.7 | 0.00 | 0.00 | 0.00 | 99 | 1033.9 |
| 20260905141411 | 20 | 329 | 12.9 | 17.7 | 0.00 | 0.00 | 0.00 | 99 | 1034.0 |
| 20260905140907 | 20 | 349 | 12.9 | 16.1 | 0.00 | 0.00 | 0.00 | 99 | 1033.9 |
| 20260905140402 | 19 | 15 | 9.7 | 25.7 | 0.00 | 0.00 | 0.00 | 99 | 1033.8 |
| 20260905135901 | 19 | 20 | 3.2 | 4.8 | 0.00 | 0.00 | 0.00 | 99 | 1033.4 |
| 20260905135356 | 19 | 359 | 0.0 | 0.0 | 0.00 | 0.00 | 0.00 | 99 | 1033.3 |
| 20260905134851 | 20 | 346 | 0.0 | 0.0 | 0.00 | 0.00 | 0.00 | 99 | 1033.2 |
| 20260905134350 | 20 | 332 | 0.0 | 0.0 | 0.00 | 0.00 | 0.00 | 99 | 1033.1 |
| 20260905133844 | 20 | 83 | 0.0 | 0.0 | 0.00 | 0.00 | 0.00 | 99 | 1033.0 |
| 20260905133339 | 20 | 83 | 0.0 | 0.0 | 0.00 | 0.00 | 0.00 | 99 | 1033.0 |
| 20260905132838 | 20 | 80 | 0.0 | 0.0 | 0.00 | 0.00 | 0.00 | 99 | 1033.2 |
| 20260905132334 | 19 | 82 | 0.0 | 0.0 | 0.00 | 0.00 | 0.00 | 99 | 1033.0 |
| 20260905131828 | 20 | 138 | 0.0 | 0.0 | 0.00 | 0.00 | 0.00 | 99 | 1033.0 |
| 20260905131324 | 19 | 139 | 0.0 | 0.0 | 0.00 | 0.00 | 0.00 | 99 | 1033.0 |
| 20260905130819 | 19 | 139 | 0.0 | 0.0 | 0.00 | 0.00 | 0.00 | 99 | 1032.9 |
| 20260905130317 | 18 | 124 | 0.0 | 0.0 | 0.00 | 0.00 | 0.00 | 99 | 1033.1 |
| 20260905125813 | 18 | 175 | 0.0 | 1.6 | 0.00 | 0.00 | 0.00 | 99 | 1033.0 |
| 20260905125308 | 18 | 101 | 0.0 | 0.0 | 0.00 | 0.00 | 0.00 | 99 | 1033.1 |
| 20260905124804 | 18 | 102 | 0.0 | 0.0 | 0.00 | 0.00 | 0.00 | 99 | 1033.3 |
| 20260905124300 | 18 | 87 | 1.6 | 1.6 | 0.00 | 0.00 | 0.00 | 99 | 1033.1 |
| 20260905123755 | 18 | 135 | 0.0 | 0.0 | 0.00 | 0.00 | 0.00 | 99 | 1033.1 |
| 20260905123252 | 18 | 172 | 0.0 | 0.0 | 0.00 | 0.00 | 0.00 | 99 | 1032.9 |
| 20260905122752 | 18 | 139 | 0.0 | 0.0 | 0.00 | 0.00 | 0.00 | 99 | 1033.1 |
| 20260905122251 | 18 | 53 | 0.0 | 0.0 | 0.00 | 0.00 | 0.00 | 99 | 1033.1 |
| 20260905121746 | 18 | 53 | 0.0 | 0.0 | 0.00 | 0.00 | 0.00 | 99 | 1032.9 |
| 20260905121243 | 18 | 54 | 0.0 | 0.0 | 0.00 | 0.00 | 0.00 | 99 | 1033.0 |
| 20260905120741 | 18 | 53 | 0.0 | 0.0 | 0.00 | 0.00 | 0.00 | 99 | 1033.0 |
| 20260905120236 | 18 | 54 | 0.0 | 0.0 | 0.00 | 0.00 | 0.00 | 99 | 1033.1 |
| 20260905115732 | 18 | 55 | 0.0 | 1.6 | 0.00 | 0.00 | 0.00 | 99 | 1033.0 |
| 20260905115231 | 18 | 25 | 0.0 | 0.0 | 0.00 | 0.00 | 0.00 | 99 | 1032.8 |
| 20260905114726 | 18 | 21 | 0.0 | 0.0 | 0.00 | 0.00 | 0.00 | 99 | 1032.9 |
| 20260905114224 | 18 | 94 | 0.0 | 0.0 | 0.00 | 0.00 | 0.00 | 99 | 1032.8 |
| 20260905113724 | 18 | 178 | 0.0 | 0.0 | 0.00 | 0.00 | 0.00 | 99 | 1033.0 |